KSUT

Cape Fear Regional Jetport / Howie Franklin Field Airport

Oak Island, North Carolina, USA
METAR KSUT 221820Z AUTO 09007KT 10SM CLR 04/M08 A3067 RMK AO2 T00391077
Observed Flight Rules
Jan-22 @ 18:20 UTC (34 minutes ago) Visual Flight Rules
Wind Visibility Clouds
90° at 7 knots 10 miles
  • Clear skies
Temperatures Readings
Current 4°C / 39°F
Dewpoint -8°C / 18°F
Humidity 42%
Altimeter 30.67" Hg
Pressure 1038.61 hPa
Elevation 8
METAR KSUT 221820Z AUTO 09007KT 10SM CLR 04/M08 A3067 RMK AO2 T00391077
Observed Flight Rules
Jan-22 @ 18:20 UTC
(34 minutes ago)
VFR
Wind Visibility
90° at 7 knots 10 miles
Clouds
  • Clear skies
Temperature Dewpoint
4°C / 39°F -8°C / 18°F
Humidity Altimeter Pressure
42% 30.67" Hg 1038.61 hPa